CZMD

Muskrat Dam Airport

Muskrat Dam, Ontario, Canada
METAR CZMD 192200Z AUTO 35005KT 300V020 9SM SCT028 BKN040 16/10 A3002 RMK SLP173 DENSITY ALT 1000FT
Observed Flight Rules
Aug-19 @ 22:00 UTC (an hour ago) Visual Flight Rules
Wind Visibility Clouds
350° at 5 knots 9 miles
  • Scattered at 2,800' AGL
  • Broken at 4,000' AGL
Temperatures Readings
Current 16°C / 61°F
Dewpoint 10°C / 50°F
Humidity 68%
Altimeter 30.02" Hg
Pressure 1017.3 hPa
Elevation 278
METAR CZMD 192200Z AUTO 35005KT 300V020 9SM SCT028 BKN040 16/10 A3002 RMK SLP173 DENSITY ALT 1000FT
Observed Flight Rules
Aug-19 @ 22:00 UTC
(an hour ago)
VFR
Wind Visibility
350° at 5 knots 9 miles
Clouds
  • Scattered at 2,800' AGL
  • Broken at 4,000' AGL
Temperature Dewpoint
16°C / 61°F 10°C / 50°F
Humidity Altimeter Pressure
68% 30.02" Hg 1017.3 hPa